createdAt,value
2019-05-29T10:55:11.094Z,17.05
2019-05-29T10:59:15.989Z,17.23
2019-05-29T11:03:20.889Z,17.27
2019-05-29T11:07:25.779Z,17.40
2019-05-29T11:11:30.677Z,17.65
2019-05-29T11:15:35.581Z,17.93
2019-05-29T11:19:40.493Z,18.17
2019-05-29T11:23:45.372Z,18.21
2019-05-29T11:27:50.492Z,18.13
2019-05-29T11:31:56.831Z,18.10
2019-05-29T11:36:12.348Z,18.12
2019-05-29T11:40:09.480Z,18.07
2019-05-29T11:49:03.638Z,18.42
2019-05-29T11:53:08.718Z,18.73
2019-05-29T11:57:13.629Z,18.47
2019-05-29T12:01:18.516Z,18.06
2019-05-29T12:05:23.495Z,17.92
2019-05-29T12:09:33.026Z,17.99
2019-05-29T12:13:34.988Z,18.02
2019-05-29T12:17:40.366Z,18.19
2019-05-29T12:21:45.659Z,18.37
2019-05-29T12:26:10.331Z,18.10
2019-05-29T12:29:57.144Z,18.13
2019-05-29T12:34:12.795Z,18.45
2019-05-29T12:38:08.649Z,18.43
2019-05-29T12:42:13.549Z,18.61
2019-05-29T12:46:18.438Z,18.76
2019-05-29T12:50:23.670Z,18.26
2019-05-29T12:54:28.580Z,18.15
2019-05-29T12:58:33.483Z,18.21
2019-05-29T13:02:38.388Z,18.20
2019-05-29T13:06:43.287Z,18.41
2019-05-29T13:10:48.180Z,18.69
2019-05-29T13:14:54.390Z,18.82
2019-05-29T13:19:01.073Z,18.80
2019-05-29T13:23:07.281Z,19.00
2019-05-29T13:27:13.529Z,18.82
2019-05-29T13:31:18.435Z,18.49
2019-05-29T13:35:23.329Z,18.17
2019-05-29T13:39:30.025Z,17.86
2019-05-29T13:43:35.010Z,18.02
2019-05-29T13:47:39.920Z,18.28
2019-05-29T13:51:44.830Z,18.52
2019-05-29T13:55:50.046Z,18.73
2019-05-29T13:59:54.936Z,18.86
2019-05-29T14:04:00.147Z,18.81
2019-05-29T14:08:05.124Z,18.81
2019-05-29T14:12:10.030Z,18.84
2019-05-29T14:16:14.927Z,18.63
2019-05-29T14:20:20.029Z,18.52
2019-05-29T14:24:29.665Z,18.65
2019-05-29T14:28:31.541Z,18.90
2019-05-29T14:32:36.449Z,18.87
2019-05-29T14:36:41.344Z,18.77
2019-05-29T14:40:46.241Z,18.48
2019-05-29T14:44:51.129Z,18.31
2019-05-29T14:48:56.031Z,18.24
2019-05-29T14:53:00.928Z,18.28
2019-05-29T14:57:19.235Z,18.41
2019-05-29T15:01:13.321Z,18.46
2019-05-29T15:05:18.662Z,18.29
2019-05-29T15:09:27.322Z,18.13
2019-05-29T15:13:33.675Z,18.02
2019-05-29T15:17:39.415Z,18.27
2019-05-29T15:21:44.313Z,18.53
2019-05-29T15:25:49.212Z,18.49
2019-05-29T15:29:54.109Z,18.38
2019-05-29T15:33:59.007Z,18.33
2019-05-29T15:38:03.901Z,18.49
2019-05-29T15:42:08.987Z,18.60
2019-05-29T15:46:15.954Z,18.47
2019-05-29T15:50:20.719Z,18.40
2019-05-29T15:54:25.615Z,18.55
2019-05-29T15:58:30.513Z,18.41
2019-05-29T16:02:35.409Z,18.53
2019-05-29T16:06:41.390Z,18.57
2019-05-29T16:10:46.284Z,18.59
2019-05-29T16:14:51.182Z,18.76
2019-05-29T16:18:56.072Z,18.99
2019-05-29T16:23:00.963Z,19.13
2019-05-29T16:27:08.815Z,19.08
2019-05-29T16:31:12.583Z,19.00
2019-05-29T16:35:17.505Z,19.08
2019-05-29T16:39:22.825Z,19.24
2019-05-29T16:43:27.688Z,19.35
2019-05-29T16:47:32.590Z,19.21
2019-05-29T16:51:37.487Z,18.98
2019-05-29T16:55:53.472Z,18.79
2019-05-29T16:59:48.987Z,18.58
2019-05-29T17:03:53.877Z,18.64
2019-05-29T17:07:58.780Z,18.64
2019-05-29T17:12:03.759Z,18.64
2019-05-29T17:16:08.661Z,18.62
2019-05-29T17:20:14.998Z,18.55
2019-05-29T17:24:20.908Z,18.47
2019-05-29T17:28:28.065Z,18.42
2019-05-29T17:32:32.480Z,18.41
2019-05-29T17:36:37.383Z,18.34
2019-05-29T17:40:42.643Z,18.30
2019-05-29T17:44:47.543Z,18.25
2019-05-29T17:48:52.441Z,18.18
2019-05-29T17:52:57.347Z,18.14
2019-05-29T17:57:02.259Z,18.05
2019-05-29T18:01:07.220Z,17.98
2019-05-29T18:05:12.439Z,17.93
2019-05-29T18:09:18.948Z,17.84
2019-05-29T18:13:25.308Z,17.77
2019-05-29T18:17:30.259Z,17.70
2019-05-29T18:21:35.147Z,17.63
2019-05-29T18:25:40.101Z,17.57
2019-05-29T18:29:45.022Z,17.51
2019-05-29T18:33:49.997Z,17.40
2019-05-29T18:37:54.897Z,17.30
2019-05-29T18:41:59.804Z,17.20
2019-05-29T18:46:04.761Z,17.09
2019-05-29T18:50:10.811Z,17.00
2019-05-29T18:54:15.772Z,16.90
2019-05-29T18:58:22.103Z,16.78
2019-05-29T19:02:27.479Z,16.67
2019-05-29T19:06:32.459Z,16.59
2019-05-29T19:10:37.362Z,16.49
2019-05-29T19:14:42.258Z,16.37
2019-05-29T19:18:47.155Z,16.23
2019-05-29T19:22:52.057Z,15.96
2019-05-29T19:26:56.957Z,15.69
2019-05-29T19:31:01.863Z,15.49
2019-05-29T19:35:08.975Z,15.35
2019-05-29T19:39:13.943Z,15.11
2019-05-29T19:43:18.851Z,14.91
2019-05-29T19:47:24.595Z,14.69
2019-05-29T19:51:31.414Z,14.45
2019-05-29T19:55:38.291Z,14.23
2019-05-29T19:59:42.973Z,14.28
2019-05-29T20:03:48.943Z,14.04
2019-05-29T20:07:54.016Z,14.03
2019-05-29T20:11:58.909Z,14.01
2019-05-29T20:16:03.891Z,13.76
2019-05-29T20:20:09.127Z,13.76
2019-05-29T20:24:14.032Z,13.54
2019-05-29T20:28:18.923Z,13.47
2019-05-29T20:32:23.844Z,13.42
2019-05-29T20:36:28.723Z,13.40
2019-05-29T20:40:33.618Z,13.49
2019-05-29T20:44:38.785Z,13.60
2019-05-29T20:48:43.812Z,13.72
2019-05-29T20:52:48.697Z,13.78
2019-05-29T20:56:53.594Z,13.82
2019-05-29T21:00:58.560Z,13.82
2019-05-29T21:05:04.327Z,13.79
2019-05-29T21:09:09.289Z,13.61
2019-05-29T21:13:14.178Z,13.61
2019-05-29T21:17:19.071Z,13.69
2019-05-29T21:21:23.971Z,13.65
2019-05-29T21:25:29.222Z,13.59
2019-05-29T21:29:35.153Z,13.56
2019-05-29T21:33:44.987Z,13.55
2019-05-29T21:37:46.766Z,13.55
2019-05-29T21:41:51.662Z,13.53
2019-05-29T21:45:56.556Z,13.54
2019-05-29T21:50:01.469Z,13.51
2019-05-29T21:54:06.411Z,13.49
2019-05-29T21:58:11.309Z,13.52
2019-05-29T22:02:16.204Z,13.49
2019-05-29T22:06:21.176Z,13.46
2019-05-29T22:10:26.448Z,13.41
2019-05-29T22:14:31.560Z,13.35
2019-05-29T22:18:36.462Z,13.31
2019-05-29T22:22:41.367Z,13.29
2019-05-29T22:26:46.265Z,13.29
2019-05-29T22:30:51.341Z,13.29
2019-05-29T22:34:57.551Z,13.29
2019-05-29T22:39:02.572Z,13.27
2019-05-29T22:43:07.842Z,13.25
2019-05-29T22:47:12.735Z,13.26
2019-05-29T22:51:17.633Z,13.25
2019-05-29T22:55:22.521Z,13.25
2019-05-29T22:59:31.963Z,13.22
2019-05-29T23:03:34.008Z,13.20
2019-05-29T23:07:38.906Z,13.17
2019-05-29T23:11:43.817Z,13.16
2019-05-29T23:15:48.722Z,13.13
2019-05-29T23:19:54.555Z,13.12
2019-05-29T23:23:59.620Z,13.10
2019-05-29T23:28:04.481Z,13.06
2019-05-29T23:32:09.383Z,13.05
2019-05-29T23:36:14.273Z,12.99
2019-05-29T23:40:19.300Z,12.83
2019-05-29T23:44:24.194Z,12.71
2019-05-29T23:48:29.094Z,12.64
2019-05-29T23:52:33.990Z,12.68
2019-05-29T23:56:38.888Z,12.68
